createdAt,value
2022-08-29T00:01:12.717Z,11.92
2022-08-29T00:03:42.081Z,11.91
2022-08-29T00:06:10.618Z,11.97
2022-08-29T00:08:37.447Z,12.05
2022-08-29T00:11:06.666Z,12.02
2022-08-29T00:13:45.605Z,12.09
2022-08-29T00:16:12.704Z,12.18
2022-08-29T00:18:40.056Z,12.13
2022-08-29T00:21:14.503Z,12.13
2022-08-29T00:23:43.954Z,12.08
2022-08-29T00:26:10.776Z,12.04
2022-08-29T00:28:41.376Z,11.88
2022-08-29T00:31:12.978Z,11.73
2022-08-29T00:33:39.768Z,11.57
2022-08-29T00:36:07.208Z,11.40
2022-08-29T00:38:35.473Z,11.32
2022-08-29T00:41:02.417Z,11.39
2022-08-29T00:43:33.372Z,11.45
2022-08-29T00:46:18.675Z,11.44
2022-08-29T00:48:48.204Z,11.45
2022-08-29T00:51:19.073Z,11.55
2022-08-29T00:53:48.444Z,11.76
2022-08-29T00:56:16.168Z,11.76
2022-08-29T00:58:50.073Z,11.78
2022-08-29T01:01:17.371Z,11.80
2022-08-29T01:03:44.211Z,11.81
2022-08-29T01:06:19.725Z,11.91
2022-08-29T01:08:46.753Z,12.05
2022-08-29T01:11:34.737Z,11.88
2022-08-29T01:14:02.673Z,11.96
2022-08-29T01:16:30.759Z,12.03
2022-08-29T01:19:01.069Z,11.93
2022-08-29T01:22:15.558Z,11.89
2022-08-29T01:24:53.077Z,11.90
2022-08-29T01:27:25.512Z,11.96
2022-08-29T01:29:52.386Z,11.94
2022-08-29T01:32:19.313Z,11.91
2022-08-29T01:34:46.127Z,11.93
2022-08-29T01:37:15.272Z,11.74
2022-08-29T01:39:43.959Z,11.80
2022-08-29T01:42:20.997Z,11.79
2022-08-29T01:44:52.908Z,11.72
2022-08-29T01:47:20.213Z,11.73
2022-08-29T01:49:47.052Z,11.71
2022-08-29T01:52:13.932Z,11.66
2022-08-29T01:54:47.769Z,11.76
2022-08-29T01:57:16.219Z,11.73
2022-08-29T01:59:43.774Z,11.53
2022-08-29T02:02:18.127Z,11.34
2022-08-29T02:04:47.103Z,11.57
2022-08-29T02:07:17.573Z,11.74
2022-08-29T02:09:45.546Z,11.66
2022-08-29T02:12:13.773Z,11.88
2022-08-29T02:14:40.837Z,11.77
2022-08-29T02:17:08.419Z,11.89
2022-08-29T02:19:36.319Z,12.03
2022-08-29T02:22:03.678Z,12.05
2022-08-29T02:24:38.005Z,12.00
2022-08-29T02:27:04.736Z,11.96
2022-08-29T02:29:37.168Z,11.99
2022-08-29T02:32:07.118Z,12.08
2022-08-29T02:34:35.213Z,12.24
2022-08-29T02:37:02.533Z,12.33
2022-08-29T02:39:29.536Z,12.34
2022-08-29T02:41:56.675Z,12.51
2022-08-29T02:44:23.532Z,12.42
2022-08-29T02:46:50.688Z,12.35
2022-08-29T02:49:17.501Z,12.34
2022-08-29T02:51:45.087Z,12.36
2022-08-29T02:54:14.983Z,12.33
2022-08-29T02:56:42.048Z,12.41
2022-08-29T02:59:08.823Z,12.42
2022-08-29T03:01:36.320Z,12.46
2022-08-29T03:04:03.343Z,12.46
2022-08-29T03:06:30.003Z,12.48
2022-08-29T03:08:56.730Z,12.56
2022-08-29T03:11:24.094Z,12.65
2022-08-29T03:13:50.738Z,12.73
2022-08-29T03:16:18.323Z,12.64
2022-08-29T03:18:52.880Z,12.58
2022-08-29T03:21:22.347Z,12.57
2022-08-29T03:23:50.255Z,12.62
2022-08-29T03:26:17.765Z,12.63
2022-08-29T03:28:44.740Z,12.85
2022-08-29T03:31:18.153Z,12.86
2022-08-29T03:33:45.021Z,12.96
2022-08-29T03:36:13.913Z,12.89
2022-08-29T03:38:44.015Z,12.82
2022-08-29T03:41:13.463Z,12.72
2022-08-29T03:43:42.590Z,12.82
2022-08-29T03:46:11.637Z,12.90
2022-08-29T03:48:38.372Z,12.91
2022-08-29T03:51:05.167Z,12.90
2022-08-29T03:53:32.961Z,12.85
2022-08-29T03:55:59.862Z,12.88
2022-08-29T03:58:30.057Z,13.17
2022-08-29T04:00:56.744Z,13.30
2022-08-29T04:03:28.352Z,13.18
2022-08-29T04:05:59.237Z,13.15
2022-08-29T04:08:26.104Z,13.05
2022-08-29T04:10:52.775Z,12.89
2022-08-29T04:13:19.478Z,12.84
2022-08-29T04:15:46.244Z,12.74
2022-08-29T04:18:13.057Z,12.68
2022-08-29T04:20:45.105Z,12.51
2022-08-29T04:23:15.166Z,12.39
2022-08-29T04:26:07.269Z,12.41
2022-08-29T04:28:44.046Z,12.36
2022-08-29T04:31:26.120Z,12.42
2022-08-29T04:34:07.117Z,12.45
2022-08-29T04:36:46.556Z,12.58
2022-08-29T04:39:14.210Z,12.54
2022-08-29T04:41:41.241Z,12.42
2022-08-29T04:44:17.466Z,12.52
2022-08-29T04:46:44.255Z,12.57
2022-08-29T04:49:13.645Z,12.44
2022-08-29T04:51:51.901Z,12.52
2022-08-29T04:54:23.280Z,12.60
2022-08-29T04:56:50.039Z,12.63
2022-08-29T04:59:20.571Z,12.69
2022-08-29T05:02:10.443Z,12.71
2022-08-29T05:04:56.431Z,12.81
2022-08-29T05:07:43.461Z,12.78
2022-08-29T05:10:26.820Z,12.83
2022-08-29T05:13:04.271Z,12.69
2022-08-29T05:15:44.565Z,12.82
2022-08-29T05:18:16.096Z,12.72
2022-08-29T05:20:52.925Z,12.74
2022-08-29T05:23:45.740Z,12.80
2022-08-29T05:26:15.085Z,12.81
2022-08-29T05:29:23.862Z,12.90
2022-08-29T05:32:08.337Z,12.93
2022-08-29T05:34:53.340Z,12.87
2022-08-29T05:37:54.280Z,12.86
2022-08-29T05:40:29.098Z,12.86
2022-08-29T05:43:09.195Z,12.86
2022-08-29T05:45:53.093Z,12.84
2022-08-29T05:48:33.955Z,12.97
2022-08-29T05:51:13.999Z,13.00
2022-08-29T05:53:47.728Z,13.09
2022-08-29T05:56:30.691Z,13.23
2022-08-29T05:59:13.783Z,13.37
2022-08-29T06:01:52.907Z,13.54
2022-08-29T06:07:08.444Z,13.95
2022-08-29T06:09:54.011Z,14.11
2022-08-29T06:12:28.710Z,14.23
2022-08-29T06:14:57.518Z,14.34
2022-08-29T06:17:24.461Z,14.36
2022-08-29T06:20:06.406Z,14.26
2022-08-29T06:22:46.100Z,14.31
2022-08-29T06:25:49.504Z,14.14
2022-08-29T06:28:23.842Z,14.05
2022-08-29T06:31:34.675Z,14.04
2022-08-29T06:34:05.342Z,14.15
2022-08-29T06:36:38.163Z,14.13
2022-08-29T06:39:09.817Z,14.27
2022-08-29T06:41:46.206Z,14.34
2022-08-29T06:44:24.105Z,14.55
2022-08-29T06:46:56.309Z,14.83
2022-08-29T06:49:36.493Z,15.11
2022-08-29T06:52:15.407Z,15.33
2022-08-29T06:54:52.873Z,15.55
2022-08-29T06:57:20.620Z,15.74
2022-08-29T06:59:52.280Z,15.70
2022-08-29T07:02:21.444Z,15.65
2022-08-29T07:22:56.919Z,16.64
2022-08-29T07:25:40.179Z,17.09
2022-08-29T07:37:27.160Z,17.08
2022-08-29T07:41:21.425Z,17.21
2022-08-29T07:52:17.275Z,17.24
2022-08-29T07:55:15.775Z,17.47
2022-08-29T07:58:51.147Z,17.31
2022-08-29T08:03:23.294Z,16.97
2022-08-29T08:04:52.804Z,17.16
2022-08-29T08:07:45.849Z,17.05
2022-08-29T08:17:16.679Z,16.63
2022-08-29T08:23:00.783Z,16.89
2022-08-29T08:26:02.702Z,16.84
2022-08-29T08:35:53.981Z,16.67
2022-08-29T08:55:31.298Z,19.43
2022-08-29T09:01:36.574Z,19.17
2022-08-29T09:08:26.799Z,20.21
2022-08-29T09:11:32.282Z,19.84
2022-08-29T09:15:01.758Z,20.21
2022-08-29T09:24:57.601Z,20.15
2022-08-29T09:27:58.448Z,20.19
2022-08-29T09:35:08.408Z,19.78
2022-08-29T09:38:57.865Z,19.89
2022-08-29T09:45:56.820Z,19.22
2022-08-29T09:49:10.063Z,20.12
2022-08-29T09:54:56.687Z,20.02
2022-08-29T09:57:26.957Z,20.32
2022-08-29T10:10:54.345Z,20.57
2022-08-29T10:14:12.984Z,20.18
2022-08-29T10:17:30.234Z,19.74
2022-08-29T10:20:30.924Z,19.87
2022-08-29T10:23:34.254Z,20.49
2022-08-29T10:26:21.189Z,20.34
2022-08-29T10:32:16.572Z,19.59
2022-08-29T10:35:03.745Z,19.86
2022-08-29T10:38:01.558Z,19.83
2022-08-29T10:41:16.368Z,19.83
2022-08-29T10:44:11.806Z,19.95
2022-08-29T10:48:01.133Z,20.05
2022-08-29T10:51:17.405Z,20.67
2022-08-29T10:54:40.781Z,20.75
2022-08-29T10:57:27.399Z,20.38
2022-08-29T11:00:28.192Z,20.97
2022-08-29T11:03:57.462Z,20.77
2022-08-29T11:06:39.948Z,21.11
2022-08-29T11:23:27.121Z,22.25
2022-08-29T11:26:32.897Z,22.47
2022-08-29T11:29:41.531Z,22.57
2022-08-29T11:34:37.210Z,21.92
2022-08-29T11:40:06.599Z,21.44
2022-08-29T11:42:52.838Z,21.75
2022-08-29T11:45:29.669Z,21.42
2022-08-29T11:48:18.048Z,21.91
2022-08-29T11:50:49.265Z,21.35
2022-08-29T11:53:39.484Z,21.15
2022-08-29T11:56:36.047Z,21.21
2022-08-29T11:59:16.083Z,21.51
2022-08-29T12:02:03.638Z,21.66
2022-08-29T12:05:10.832Z,21.83
2022-08-29T12:08:36.403Z,21.75
2022-08-29T12:11:27.364Z,21.39
2022-08-29T12:13:58.513Z,21.24
2022-08-29T12:16:47.098Z,21.45
2022-08-29T12:19:55.822Z,21.83
2022-08-29T12:22:56.271Z,22.06
2022-08-29T12:25:44.873Z,21.58
2022-08-29T12:28:31.124Z,21.17
2022-08-29T12:31:08.212Z,20.77
2022-08-29T12:34:14.549Z,20.77
2022-08-29T12:37:14.928Z,20.96
2022-08-29T12:39:53.256Z,21.18
2022-08-29T12:43:17.872Z,21.09
2022-08-29T12:45:47.402Z,20.70
2022-08-29T12:48:34.042Z,21.09
2022-08-29T12:51:13.933Z,21.37
2022-08-29T12:54:01.505Z,21.58
2022-08-29T12:56:46.190Z,21.68
2022-08-29T12:59:22.811Z,21.66
2022-08-29T13:01:57.013Z,21.72
2022-08-29T13:04:46.981Z,21.63
2022-08-29T13:10:00.470Z,22.20
2022-08-29T13:12:43.501Z,21.97
2022-08-29T13:15:33.106Z,22.23
2022-08-29T13:18:15.142Z,22.67
2022-08-29T13:21:07.747Z,22.56
2022-08-29T13:24:01.674Z,22.58
2022-08-29T13:26:41.682Z,22.63
2022-08-29T13:29:27.033Z,22.32
2022-08-29T13:32:52.732Z,22.15
2022-08-29T13:35:38.466Z,22.36
2022-08-29T13:38:56.703Z,22.62
2022-08-29T13:41:30.215Z,22.44
2022-08-29T13:44:21.087Z,22.49
2022-08-29T13:47:14.750Z,23.00
2022-08-29T13:49:53.153Z,23.67
2022-08-29T13:53:03.178Z,23.49
2022-08-29T13:58:21.601Z,23.45
2022-08-29T14:00:59.626Z,23.27
2022-08-29T14:06:45.565Z,23.10
2022-08-29T14:09:28.466Z,23.39
2022-08-29T14:12:33.830Z,23.38
2022-08-29T14:15:09.642Z,23.53
2022-08-29T14:17:42.689Z,23.21
2022-08-29T14:20:26.460Z,23.01
2022-08-29T14:23:13.475Z,23.27
2022-08-29T14:25:45.922Z,23.39
2022-08-29T14:28:16.075Z,23.29
2022-08-29T14:30:51.922Z,23.22
2022-08-29T14:33:26.471Z,23.51
2022-08-29T14:36:07.420Z,23.15
2022-08-29T14:38:34.449Z,23.16
2022-08-29T14:41:07.211Z,23.17
2022-08-29T14:43:52.808Z,23.36
2022-08-29T14:46:23.463Z,23.44
2022-08-29T14:48:50.507Z,23.20
2022-08-29T14:51:17.284Z,23.31
2022-08-29T14:53:54.920Z,23.54
2022-08-29T14:56:50.321Z,23.20
2022-08-29T14:59:21.850Z,23.34
2022-08-29T15:01:54.246Z,23.22
2022-08-29T15:04:46.277Z,23.31
2022-08-29T15:07:13.517Z,23.25
2022-08-29T15:09:42.063Z,23.27
2022-08-29T15:12:16.557Z,23.40
2022-08-29T15:14:44.611Z,23.65
2022-08-29T15:17:13.752Z,23.66
2022-08-29T15:20:34.294Z,23.37
2022-08-29T15:22:34.219Z,23.32
2022-08-29T15:25:02.165Z,23.38
2022-08-29T15:27:31.590Z,23.48
2022-08-29T15:30:04.410Z,23.65
2022-08-29T15:32:32.598Z,23.75
2022-08-29T15:34:59.436Z,23.27
2022-08-29T15:37:37.742Z,23.11
2022-08-29T15:40:10.960Z,23.01
2022-08-29T15:42:42.110Z,22.89
2022-08-29T15:45:14.702Z,23.04
2022-08-29T15:48:03.096Z,23.09
2022-08-29T15:50:49.184Z,23.21
2022-08-29T15:54:11.171Z,23.24
2022-08-29T15:56:51.431Z,23.24
2022-08-29T16:02:37.910Z,23.36
2022-08-29T16:05:11.808Z,23.62
2022-08-29T16:07:42.811Z,23.55
2022-08-29T16:10:11.547Z,23.56
2022-08-29T16:12:42.101Z,23.70
2022-08-29T16:15:10.097Z,23.55
2022-08-29T16:17:39.685Z,23.52
2022-08-29T16:20:13.767Z,23.27
2022-08-29T16:22:47.319Z,23.11
2022-08-29T16:25:43.026Z,22.82
2022-08-29T16:28:15.776Z,22.71
2022-08-29T16:30:53.803Z,22.60
2022-08-29T16:33:23.337Z,22.49
2022-08-29T16:35:50.307Z,22.47
2022-08-29T16:38:19.953Z,22.27
2022-08-29T16:40:46.980Z,22.24
2022-08-29T16:43:16.914Z,22.18
2022-08-29T16:45:43.859Z,22.18
2022-08-29T16:48:15.606Z,22.08
2022-08-29T16:50:42.707Z,22.02
2022-08-29T16:53:09.363Z,22.01
2022-08-29T16:55:36.117Z,22.02
2022-08-29T16:58:22.786Z,21.88
2022-08-29T17:00:55.589Z,21.97
2022-08-29T17:03:22.339Z,21.96
2022-08-29T17:05:49.463Z,21.85
2022-08-29T17:08:16.640Z,21.64
2022-08-29T17:10:43.493Z,21.65
2022-08-29T17:13:12.765Z,21.51
2022-08-29T17:15:40.284Z,21.49
2022-08-29T17:18:07.323Z,21.43
2022-08-29T17:20:37.599Z,21.33
2022-08-29T17:23:10.082Z,21.19
2022-08-29T17:25:40.607Z,21.10
2022-08-29T17:28:19.426Z,20.97
2022-08-29T17:30:48.050Z,20.91
2022-08-29T17:33:22.362Z,20.82
2022-08-29T17:35:49.329Z,20.86
2022-08-29T17:38:16.865Z,20.73
2022-08-29T17:40:49.748Z,20.60
2022-08-29T17:43:22.080Z,20.42
2022-08-29T17:45:59.497Z,20.16
2022-08-29T17:48:31.929Z,19.84
2022-08-29T17:50:59.435Z,19.66
2022-08-29T17:53:34.384Z,19.92
2022-08-29T17:56:44.830Z,19.80
2022-08-29T17:59:13.090Z,20.00
2022-08-29T18:01:49.478Z,19.88
2022-08-29T18:04:17.710Z,19.58
2022-08-29T18:06:47.205Z,19.48
2022-08-29T18:09:14.814Z,19.23
2022-08-29T18:11:45.301Z,18.95
2022-08-29T18:14:12.327Z,18.65
2022-08-29T18:16:55.560Z,18.39
2022-08-29T18:19:27.002Z,18.27
2022-08-29T18:21:54.155Z,18.14
2022-08-29T18:24:24.066Z,17.93
2022-08-29T18:26:51.296Z,17.77
2022-08-29T18:29:19.240Z,17.70
2022-08-29T18:31:46.014Z,17.61
2022-08-29T18:34:12.993Z,17.53
2022-08-29T18:36:44.369Z,17.43
2022-08-29T18:39:15.409Z,17.38
2022-08-29T18:41:42.243Z,17.26
2022-08-29T18:44:10.068Z,17.15
2022-08-29T18:46:37.019Z,17.11
2022-08-29T18:49:03.702Z,16.97
2022-08-29T18:51:33.838Z,16.86
2022-08-29T18:54:00.613Z,16.81
2022-08-29T18:56:27.618Z,16.74
2022-08-29T18:58:58.542Z,16.80
2022-08-29T19:01:28.641Z,16.88
2022-08-29T19:04:02.582Z,16.91
2022-08-29T19:06:29.311Z,16.87
2022-08-29T19:08:56.647Z,16.84
2022-08-29T19:11:23.691Z,16.73
2022-08-29T19:13:52.630Z,16.64
2022-08-29T19:16:21.206Z,16.55
2022-08-29T19:18:49.362Z,16.73
2022-08-29T19:21:16.323Z,16.99
2022-08-29T19:23:52.104Z,16.95
2022-08-29T19:26:25.911Z,16.89
2022-08-29T19:28:56.641Z,16.78
2022-08-29T19:31:27.832Z,16.77
2022-08-29T19:33:57.422Z,16.64
2022-08-29T19:36:25.059Z,16.49
2022-08-29T19:38:51.866Z,16.38
2022-08-29T19:41:18.742Z,16.35
2022-08-29T19:43:45.624Z,16.25
2022-08-29T19:46:20.863Z,16.13
2022-08-29T19:48:51.280Z,16.08
2022-08-29T19:51:19.918Z,16.01
2022-08-29T19:53:50.988Z,16.13
2022-08-29T19:56:18.237Z,16.17
2022-08-29T19:58:45.309Z,16.13
2022-08-29T20:01:19.356Z,16.15
2022-08-29T20:03:46.253Z,16.06
2022-08-29T20:06:15.875Z,16.11
2022-08-29T20:08:47.993Z,15.95
2022-08-29T20:11:21.151Z,15.99
2022-08-29T20:13:51.149Z,16.09
2022-08-29T20:16:22.715Z,16.08
2022-08-29T20:18:50.351Z,16.08
2022-08-29T20:21:19.286Z,15.99
2022-08-29T20:23:52.838Z,15.86
2022-08-29T20:26:24.000Z,15.83
2022-08-29T20:28:52.057Z,15.84
2022-08-29T20:31:19.721Z,15.86
2022-08-29T20:33:48.252Z,15.80
2022-08-29T20:36:38.268Z,15.86
2022-08-29T20:39:06.908Z,15.89
2022-08-29T20:41:35.679Z,15.82
2022-08-29T20:44:07.019Z,15.93
2022-08-29T20:46:39.509Z,15.82
2022-08-29T20:49:10.046Z,15.83
2022-08-29T20:51:37.457Z,15.66
2022-08-29T20:54:04.308Z,15.69
2022-08-29T20:56:31.101Z,15.74
2022-08-29T20:58:57.996Z,15.76
2022-08-29T21:01:27.349Z,15.74
2022-08-29T21:04:12.784Z,15.63
2022-08-29T21:06:39.445Z,15.45
2022-08-29T21:09:06.525Z,15.44
2022-08-29T21:11:33.403Z,15.33
2022-08-29T21:14:00.531Z,15.37
2022-08-29T21:16:29.549Z,15.41
2022-08-29T21:18:56.279Z,15.36
2022-08-29T21:21:24.849Z,15.30
2022-08-29T21:23:52.035Z,15.30
2022-08-29T21:26:18.924Z,15.22
2022-08-29T21:28:47.247Z,15.26
2022-08-29T21:31:16.724Z,15.24
2022-08-29T21:33:46.439Z,15.25
2022-08-29T21:36:20.798Z,15.26
2022-08-29T21:38:48.902Z,15.42
2022-08-29T21:41:18.020Z,15.48
2022-08-29T21:43:47.483Z,15.32
2022-08-29T21:46:19.814Z,15.35
2022-08-29T21:48:47.267Z,15.23
2022-08-29T21:51:17.942Z,15.21
2022-08-29T21:53:47.375Z,15.20
2022-08-29T21:56:14.094Z,15.20
2022-08-29T21:58:41.035Z,15.08
2022-08-29T22:01:11.261Z,15.20
2022-08-29T22:03:38.893Z,15.06
2022-08-29T22:06:07.080Z,14.98
2022-08-29T22:08:34.226Z,14.95
2022-08-29T22:11:01.332Z,15.00
2022-08-29T22:13:28.011Z,14.96
2022-08-29T22:16:13.359Z,14.86
2022-08-29T22:18:40.045Z,14.81
2022-08-29T22:21:06.766Z,14.71
2022-08-29T22:23:33.442Z,14.63
2022-08-29T22:26:00.112Z,14.57
2022-08-29T22:28:27.190Z,14.53
2022-08-29T22:30:55.265Z,14.47
2022-08-29T22:33:22.337Z,14.41
2022-08-29T22:35:49.012Z,14.35
2022-08-29T22:38:15.688Z,14.28
2022-08-29T22:40:44.360Z,14.24
2022-08-29T22:43:18.407Z,14.27
2022-08-29T22:45:45.090Z,14.29
2022-08-29T22:48:13.157Z,14.29
2022-08-29T22:50:45.893Z,14.34
2022-08-29T22:53:26.005Z,14.25
2022-08-29T22:55:52.769Z,14.26
2022-08-29T22:58:19.390Z,14.24
2022-08-29T23:00:46.132Z,14.21
2022-08-29T23:03:12.951Z,14.26
2022-08-29T23:05:39.724Z,14.29
2022-08-29T23:08:06.431Z,14.12
2022-08-29T23:10:34.038Z,14.10
2022-08-29T23:13:00.653Z,14.10
2022-08-29T23:15:27.366Z,14.15
2022-08-29T23:17:54.040Z,14.09
2022-08-29T23:20:20.690Z,14.35
2022-08-29T23:22:47.311Z,14.29
2022-08-29T23:25:15.829Z,14.14
2022-08-29T23:27:42.424Z,14.16
2022-08-29T23:30:11.479Z,14.17
2022-08-29T23:32:38.363Z,13.98
2022-08-29T23:35:09.519Z,14.02
2022-08-29T23:37:36.169Z,13.98
2022-08-29T23:40:03.783Z,13.99
2022-08-29T23:42:31.409Z,13.91
2022-08-29T23:44:58.055Z,14.03
2022-08-29T23:47:24.730Z,13.94
2022-08-29T23:49:51.420Z,13.90
2022-08-29T23:52:18.132Z,13.79
2022-08-29T23:54:44.807Z,13.96
2022-08-29T23:57:11.749Z,13.94
2022-08-29T23:59:57.240Z,13.90
